Aviation Digital Data Service (ADDS)

Output produced by METARs form (0632 UTC 03 July 2022)
found at http://aviationweather.gov/metar/data/
 
METAR text: ETMN 030620Z VRB02KT 9999 FEW070 BKN210 19/14 Q1016 BLU+
Conditions at: ETMN (NORDHOLZ (GER-NA, DE) observed 0620 UTC 03 July 2022
Temperature: 19.0°C (66°F)
Dewpoint: 14.0°C (57°F) [RH = 73%]
Pressure (altimeter): 30.00 inches Hg (1016.0 mb)
Winds: variable direction winds at 2 MPH (2 knots; 1.0 m/s)
Visibility: 6 or more miles (10+ km)
Ceiling: 21000 feet AGL
Clouds: few clouds at 7000 feet AGL
broken clouds at 21000 feet AGL
Weather: no significant weather observed at this time